sensor_id;sensor_type;location;lat;lon;timestamp;temperature;humidity
1015;DHT22;8170;48.118;11.628;2022-10-16T00:01:06;12.70;99.90
1015;DHT22;8170;48.118;11.628;2022-10-16T00:02:09;12.70;99.90
1015;DHT22;8170;48.118;11.628;2022-10-16T00:03:12;12.70;99.90
1015;DHT22;8170;48.118;11.628;2022-10-16T00:04:14;12.70;99.90
1015;DHT22;8170;48.118;11.628;2022-10-16T00:05:19;12.70;99.90
1015;DHT22;8170;48.118;11.628;2022-10-16T00:06:21;12.60;99.90
1015;DHT22;8170;48.118;11.628;2022-10-16T00:07:25;12.60;99.90
1015;DHT22;8170;48.118;11.628;2022-10-16T00:08:28;12.60;99.90
1015;DHT22;8170;48.118;11.628;2022-10-16T00:09:31;12.60;99.90
1015;DHT22;8170;48.118;11.628;2022-10-16T00:10:33;12.60;99.90
1015;DHT22;8170;48.118;11.628;2022-10-16T00:11:38;12.60;99.90
1015;DHT22;8170;48.118;11.628;2022-10-16T00:12:42;12.60;99.90
1015;DHT22;8170;48.118;11.628;2022-10-16T00:13:45;12.50;99.90
1015;DHT22;8170;48.118;11.628;2022-10-16T00:14:49;12.50;99.90
1015;DHT22;8170;48.118;11.628;2022-10-16T00:15:52;12.50;99.90
1015;DHT22;8170;48.118;11.628;2022-10-16T00:16:57;12.50;99.90
1015;DHT22;8170;48.118;11.628;2022-10-16T00:17:59;12.50;99.90
1015;DHT22;8170;48.118;11.628;2022-10-16T00:19:02;12.50;99.90
1015;DHT22;8170;48.118;11.628;2022-10-16T00:20:05;12.50;99.90
1015;DHT22;8170;48.118;11.628;2022-10-16T00:21:11;12.50;99.90
1015;DHT22;8170;48.118;11.628;2022-10-16T00:22:13;12.50;99.90
1015;DHT22;8170;48.118;11.628;2022-10-16T00:23:17;12.50;99.90
1015;DHT22;8170;48.118;11.628;2022-10-16T00:24:19;12.50;99.90
1015;DHT22;8170;48.118;11.628;2022-10-16T00:25:22;12.50;99.90
1015;DHT22;8170;48.118;11.628;2022-10-16T00:26:24;12.50;99.90
1015;DHT22;8170;48.118;11.628;2022-10-16T00:27:27;12.50;99.90
1015;DHT22;8170;48.118;11.628;2022-10-16T00:28:30;12.50;99.90
1015;DHT22;8170;48.118;11.628;2022-10-16T00:29:33;12.50;99.90
1015;DHT22;8170;48.118;11.628;2022-10-16T00:30:37;12.50;99.90
1015;DHT22;8170;48.118;11.628;2022-10-16T00:31:40;12.40;99.90
1015;DHT22;8170;48.118;11.628;2022-10-16T00:32:42;12.50;99.90
1015;DHT22;8170;48.118;11.628;2022-10-16T00:33:46;12.40;99.90
1015;DHT22;8170;48.118;11.628;2022-10-16T00:34:48;12.40;99.90
1015;DHT22;8170;48.118;11.628;2022-10-16T00:35:51;12.40;99.90
1015;DHT22;8170;48.118;11.628;2022-10-16T00:36:54;12.30;99.90
1015;DHT22;8170;48.118;11.628;2022-10-16T00:37:57;12.30;99.90
1015;DHT22;8170;48.118;11.628;2022-10-16T00:39:00;12.30;99.90
1015;DHT22;8170;48.118;11.628;2022-10-16T00:40:04;12.30;99.90
1015;DHT22;8170;48.118;11.628;2022-10-16T00:41:09;12.30;99.90
1015;DHT22;8170;48.118;11.628;2022-10-16T00:42:15;12.20;99.90
1015;DHT22;8170;48.118;11.628;2022-10-16T00:43:34;12.30;99.90
1015;DHT22;8170;48.118;11.628;2022-10-16T00:44:50;12.30;99.90
1015;DHT22;8170;48.118;11.628;2022-10-16T00:45:54;12.30;99.90
1015;DHT22;8170;48.118;11.628;2022-10-16T00:46:56;12.30;99.90
1015;DHT22;8170;48.118;11.628;2022-10-16T00:47:59;12.30;99.90
1015;DHT22;8170;48.118;11.628;2022-10-16T00:49:03;12.30;99.90
1015;DHT22;8170;48.118;11.628;2022-10-16T00:50:10;12.30;99.90
1015;DHT22;8170;48.118;11.628;2022-10-16T00:51:13;12.30;99.90
1015;DHT22;8170;48.118;11.628;2022-10-16T00:52:19;12.30;99.90
1015;DHT22;8170;48.118;11.628;2022-10-16T00:53:21;12.30;99.90
1015;DHT22;8170;48.118;11.628;2022-10-16T00:54:26;12.30;99.90
1015;DHT22;8170;48.118;11.628;2022-10-16T00:55:29;12.30;99.90
1015;DHT22;8170;48.118;11.628;2022-10-16T00:56:44;12.30;99.90
1015;DHT22;8170;48.118;11.628;2022-10-16T00:57:47;12.30;99.90
1015;DHT22;8170;48.118;11.628;2022-10-16T00:58:50;12.30;99.90
1015;DHT22;8170;48.118;11.628;2022-10-16T00:59:53;12.30;99.90
1015;DHT22;8170;48.118;11.628;2022-10-16T01:00:56;12.30;99.90
1015;DHT22;8170;48.118;11.628;2022-10-16T01:01:59;12.30;99.90
1015;DHT22;8170;48.118;11.628;2022-10-16T01:03:21;12.30;99.90
1015;DHT22;8170;48.118;11.628;2022-10-16T01:04:24;12.30;99.90
1015;DHT22;8170;48.118;11.628;2022-10-16T01:05:35;12.30;99.90
1015;DHT22;8170;48.118;11.628;2022-10-16T01:06:46;12.30;99.90
1015;DHT22;8170;48.118;11.628;2022-10-16T01:07:58;12.30;99.90
1015;DHT22;8170;48.118;11.628;2022-10-16T01:09:10;12.30;99.90
1015;DHT22;8170;48.118;11.628;2022-10-16T01:10:22;12.30;99.90
1015;DHT22;8170;48.118;11.628;2022-10-16T01:11:31;12.20;99.90
1015;DHT22;8170;48.118;11.628;2022-10-16T01:12:40;12.20;99.90
1015;DHT22;8170;48.118;11.628;2022-10-16T01:13:51;12.20;99.90
1015;DHT22;8170;48.118;11.628;2022-10-16T01:14:58;12.10;99.90
1015;DHT22;8170;48.118;11.628;2022-10-16T01:16:05;12.10;99.90
1015;DHT22;8170;48.118;11.628;2022-10-16T01:17:12;12.20;99.90
1015;DHT22;8170;48.118;11.628;2022-10-16T01:18:20;12.20;99.90
1015;DHT22;8170;48.118;11.628;2022-10-16T01:19:36;12.20;99.90
1015;DHT22;8170;48.118;11.628;2022-10-16T01:20:47;12.20;99.90
1015;DHT22;8170;48.118;11.628;2022-10-16T01:21:53;12.20;99.90
1015;DHT22;8170;48.118;11.628;2022-10-16T01:24:32;12.10;99.90
1015;DHT22;8170;48.118;11.628;2022-10-16T01:26:04;12.10;99.90
1015;DHT22;8170;48.118;11.628;2022-10-16T01:27:16;12.10;99.90
1015;DHT22;8170;48.118;11.628;2022-10-16T01:28:25;12.10;99.90
1015;DHT22;8170;48.118;11.628;2022-10-16T01:29:35;12.10;99.90
1015;DHT22;8170;48.118;11.628;2022-10-16T01:30:41;12.10;99.90
1015;DHT22;8170;48.118;11.628;2022-10-16T01:31:48;12.10;99.90
1015;DHT22;8170;48.118;11.628;2022-10-16T01:32:55;12.10;99.90
1015;DHT22;8170;48.118;11.628;2022-10-16T01:34:02;12.10;99.90
1015;DHT22;8170;48.118;11.628;2022-10-16T01:35:09;12.10;99.90
1015;DHT22;8170;48.118;11.628;2022-10-16T01:36:14;12.10;99.90
1015;DHT22;8170;48.118;11.628;2022-10-16T01:37:25;12.10;99.90
1015;DHT22;8170;48.118;11.628;2022-10-16T01:38:33;12.10;99.90
1015;DHT22;8170;48.118;11.628;2022-10-16T01:39:38;12.10;99.90
1015;DHT22;8170;48.118;11.628;2022-10-16T01:40:45;12.00;99.90
1015;DHT22;8170;48.118;11.628;2022-10-16T01:41:51;12.10;99.90
1015;DHT22;8170;48.118;11.628;2022-10-16T01:43:01;12.00;99.90
1015;DHT22;8170;48.118;11.628;2022-10-16T01:44:07;12.00;99.90
1015;DHT22;8170;48.118;11.628;2022-10-16T01:45:13;12.00;99.90
1015;DHT22;8170;48.118;11.628;2022-10-16T01:46:19;12.00;99.90
1015;DHT22;8170;48.118;11.628;2022-10-16T01:47:25;12.00;99.90
1015;DHT22;8170;48.118;11.628;2022-10-16T01:48:29;12.00;99.90
1015;DHT22;8170;48.118;11.628;2022-10-16T01:49:36;12.00;99.90
1015;DHT22;8170;48.118;11.628;2022-10-16T01:50:41;11.90;99.90
1015;DHT22;8170;48.118;11.628;2022-10-16T01:51:48;11.90;99.90
1015;DHT22;8170;48.118;11.628;2022-10-16T01:52:52;11.90;99.90
1015;DHT22;8170;48.118;11.628;2022-10-16T01:54:00;11.90;99.90
1015;DHT22;8170;48.118;11.628;2022-10-16T01:55:05;11.90;99.90
1015;DHT22;8170;48.118;11.628;2022-10-16T01:56:12;11.90;99.90
1015;DHT22;8170;48.118;11.628;2022-10-16T01:57:15;11.90;99.90
1015;DHT22;8170;48.118;11.628;2022-10-16T01:58:22;11.90;99.90
1015;DHT22;8170;48.118;11.628;2022-10-16T01:59:26;11.90;99.90
1015;DHT22;8170;48.118;11.628;2022-10-16T02:00:30;11.90;99.90
1015;DHT22;8170;48.118;11.628;2022-10-16T02:01:35;11.90;99.90
1015;DHT22;8170;48.118;11.628;2022-10-16T02:02:40;11.90;99.90
1015;DHT22;8170;48.118;11.628;2022-10-16T02:03:44;11.90;99.90
1015;DHT22;8170;48.118;11.628;2022-10-16T02:04:54;11.90;99.90
1015;DHT22;8170;48.118;11.628;2022-10-16T02:05:59;11.90;99.90
1015;DHT22;8170;48.118;11.628;2022-10-16T02:07:03;11.90;99.90
1015;DHT22;8170;48.118;11.628;2022-10-16T02:08:05;11.90;99.90
1015;DHT22;8170;48.118;11.628;2022-10-16T02:09:08;11.90;99.90
1015;DHT22;8170;48.118;11.628;2022-10-16T02:10:11;11.90;99.90
1015;DHT22;8170;48.118;11.628;2022-10-16T02:11:14;11.90;99.90
1015;DHT22;8170;48.118;11.628;2022-10-16T02:12:19;11.90;99.90
1015;DHT22;8170;48.118;11.628;2022-10-16T02:13:27;11.90;99.90
1015;DHT22;8170;48.118;11.628;2022-10-16T02:14:32;11.90;99.90
1015;DHT22;8170;48.118;11.628;2022-10-16T02:15:35;11.90;99.90
1015;DHT22;8170;48.118;11.628;2022-10-16T02:16:39;11.90;99.90
1015;DHT22;8170;48.118;11.628;2022-10-16T02:17:46;11.90;99.90
1015;DHT22;8170;48.118;11.628;2022-10-16T02:18:48;11.90;99.90
1015;DHT22;8170;48.118;11.628;2022-10-16T02:19:54;11.90;99.90
1015;DHT22;8170;48.118;11.628;2022-10-16T02:20:59;11.90;99.90
1015;DHT22;8170;48.118;11.628;2022-10-16T02:22:05;11.90;99.90
1015;DHT22;8170;48.118;11.628;2022-10-16T02:23:13;12.00;99.90
1015;DHT22;8170;48.118;11.628;2022-10-16T02:24:21;12.00;99.90
1015;DHT22;8170;48.118;11.628;2022-10-16T02:25:29;12.00;99.90
1015;DHT22;8170;48.118;11.628;2022-10-16T02:26:43;12.00;99.90
1015;DHT22;8170;48.118;11.628;2022-10-16T02:27:53;12.00;99.90
1015;DHT22;8170;48.118;11.628;2022-10-16T02:29:02;12.00;99.90
1015;DHT22;8170;48.118;11.628;2022-10-16T02:30:11;12.00;99.90
1015;DHT22;8170;48.118;11.628;2022-10-16T02:31:20;12.00;99.90
1015;DHT22;8170;48.118;11.628;2022-10-16T02:32:27;12.00;99.90
1015;DHT22;8170;48.118;11.628;2022-10-16T02:33:33;12.00;99.90
1015;DHT22;8170;48.118;11.628;2022-10-16T02:34:37;12.00;99.90
1015;DHT22;8170;48.118;11.628;2022-10-16T02:35:43;12.00;99.90
1015;DHT22;8170;48.118;11.628;2022-10-16T02:36:48;12.00;99.90
1015;DHT22;8170;48.118;11.628;2022-10-16T02:37:52;12.00;99.90
1015;DHT22;8170;48.118;11.628;2022-10-16T02:38:55;12.00;99.90
1015;DHT22;8170;48.118;11.628;2022-10-16T02:39:58;12.00;99.90
1015;DHT22;8170;48.118;11.628;2022-10-16T02:41:00;12.00;99.90
1015;DHT22;8170;48.118;11.628;2022-10-16T02:42:03;12.00;99.90
1015;DHT22;8170;48.118;11.628;2022-10-16T02:43:06;12.00;99.90
1015;DHT22;8170;48.118;11.628;2022-10-16T02:44:10;12.00;99.90
1015;DHT22;8170;48.118;11.628;2022-10-16T02:45:12;12.00;99.90
1015;DHT22;8170;48.118;11.628;2022-10-16T02:46:17;12.00;99.90
1015;DHT22;8170;48.118;11.628;2022-10-16T02:47:19;12.00;99.90
1015;DHT22;8170;48.118;11.628;2022-10-16T02:48:22;11.90;99.90
1015;DHT22;8170;48.118;11.628;2022-10-16T02:49:24;11.90;99.90
1015;DHT22;8170;48.118;11.628;2022-10-16T02:50:27;11.90;99.90
1015;DHT22;8170;48.118;11.628;2022-10-16T02:51:29;11.90;99.90
1015;DHT22;8170;48.118;11.628;2022-10-16T02:52:32;11.90;99.90
1015;DHT22;8170;48.118;11.628;2022-10-16T02:53:34;11.90;99.90
1015;DHT22;8170;48.118;11.628;2022-10-16T02:54:37;11.90;99.90
1015;DHT22;8170;48.118;11.628;2022-10-16T02:55:39;11.90;99.90
1015;DHT22;8170;48.118;11.628;2022-10-16T02:56:42;11.90;99.90
1015;DHT22;8170;48.118;11.628;2022-10-16T02:57:44;11.90;99.90
1015;DHT22;8170;48.118;11.628;2022-10-16T02:58:47;11.90;99.90
1015;DHT22;8170;48.118;11.628;2022-10-16T02:59:51;11.90;99.90
1015;DHT22;8170;48.118;11.628;2022-10-16T03:00:55;11.90;99.90
1015;DHT22;8170;48.118;11.628;2022-10-16T03:01:57;11.90;99.90
1015;DHT22;8170;48.118;11.628;2022-10-16T03:03:00;11.90;99.90
1015;DHT22;8170;48.118;11.628;2022-10-16T03:04:03;11.90;99.90
1015;DHT22;8170;48.118;11.628;2022-10-16T03:05:07;11.80;99.90
1015;DHT22;8170;48.118;11.628;2022-10-16T03:06:09;11.90;99.90
1015;DHT22;8170;48.118;11.628;2022-10-16T03:07:12;11.90;99.90
1015;DHT22;8170;48.118;11.628;2022-10-16T03:08:14;11.90;99.90
1015;DHT22;8170;48.118;11.628;2022-10-16T03:09:17;11.90;99.90
1015;DHT22;8170;48.118;11.628;2022-10-16T03:10:19;11.90;99.90
1015;DHT22;8170;48.118;11.628;2022-10-16T03:11:22;11.90;99.90
1015;DHT22;8170;48.118;11.628;2022-10-16T03:12:25;11.90;99.90
1015;DHT22;8170;48.118;11.628;2022-10-16T03:13:28;11.90;99.90
1015;DHT22;8170;48.118;11.628;2022-10-16T03:14:30;11.90;99.90
1015;DHT22;8170;48.118;11.628;2022-10-16T03:15:35;11.80;99.90
1015;DHT22;8170;48.118;11.628;2022-10-16T03:16:37;11.80;99.90
1015;DHT22;8170;48.118;11.628;2022-10-16T03:17:49;11.80;99.90
1015;DHT22;8170;48.118;11.628;2022-10-16T03:18:51;11.80;99.90
1015;DHT22;8170;48.118;11.628;2022-10-16T03:19:54;11.80;99.90
1015;DHT22;8170;48.118;11.628;2022-10-16T03:20:56;11.80;99.90
1015;DHT22;8170;48.118;11.628;2022-10-16T03:21:59;11.70;99.90
1015;DHT22;8170;48.118;11.628;2022-10-16T03:23:01;11.70;99.90
1015;DHT22;8170;48.118;11.628;2022-10-16T03:24:05;11.70;99.90
1015;DHT22;8170;48.118;11.628;2022-10-16T03:25:08;11.70;99.90
1015;DHT22;8170;48.118;11.628;2022-10-16T03:26:11;11.80;99.90
1015;DHT22;8170;48.118;11.628;2022-10-16T03:27:13;11.80;99.90
1015;DHT22;8170;48.118;11.628;2022-10-16T03:28:16;11.70;99.90
1015;DHT22;8170;48.118;11.628;2022-10-16T03:29:18;11.70;99.90
1015;DHT22;8170;48.118;11.628;2022-10-16T03:30:21;11.70;99.90
1015;DHT22;8170;48.118;11.628;2022-10-16T03:31:24;11.70;99.90
1015;DHT22;8170;48.118;11.628;2022-10-16T03:32:27;11.70;99.90
1015;DHT22;8170;48.118;11.628;2022-10-16T03:33:30;11.70;99.90
1015;DHT22;8170;48.118;11.628;2022-10-16T03:34:33;11.70;99.90
1015;DHT22;8170;48.118;11.628;2022-10-16T03:35:38;11.70;99.90
1015;DHT22;8170;48.118;11.628;2022-10-16T03:36:41;11.70;99.90
1015;DHT22;8170;48.118;11.628;2022-10-16T03:37:44;11.70;99.90
1015;DHT22;8170;48.118;11.628;2022-10-16T03:38:46;11.70;99.90
1015;DHT22;8170;48.118;11.628;2022-10-16T03:39:49;11.70;99.90
1015;DHT22;8170;48.118;11.628;2022-10-16T03:40:51;11.70;99.90
1015;DHT22;8170;48.118;11.628;2022-10-16T03:41:54;11.70;99.90
1015;DHT22;8170;48.118;11.628;2022-10-16T03:42:56;11.70;99.90
1015;DHT22;8170;48.118;11.628;2022-10-16T03:43:59;11.70;99.90
1015;DHT22;8170;48.118;11.628;2022-10-16T03:45:01;11.70;99.90
1015;DHT22;8170;48.118;11.628;2022-10-16T03:46:05;11.70;99.90
1015;DHT22;8170;48.118;11.628;2022-10-16T03:47:08;11.70;99.90
1015;DHT22;8170;48.118;11.628;2022-10-16T03:48:11;11.70;99.90
1015;DHT22;8170;48.118;11.628;2022-10-16T03:49:13;11.80;99.90
1015;DHT22;8170;48.118;11.628;2022-10-16T03:50:16;11.70;99.90
1015;DHT22;8170;48.118;11.628;2022-10-16T03:51:18;11.70;99.90
1015;DHT22;8170;48.118;11.628;2022-10-16T03:52:22;11.80;99.90
1015;DHT22;8170;48.118;11.628;2022-10-16T03:53:24;11.80;99.90
1015;DHT22;8170;48.118;11.628;2022-10-16T03:54:27;11.80;99.90
1015;DHT22;8170;48.118;11.628;2022-10-16T03:55:29;11.90;99.90
1015;DHT22;8170;48.118;11.628;2022-10-16T03:56:32;11.90;99.90
1015;DHT22;8170;48.118;11.628;2022-10-16T03:57:35;11.90;99.90
1015;DHT22;8170;48.118;11.628;2022-10-16T03:58:38;11.90;99.90
1015;DHT22;8170;48.118;11.628;2022-10-16T03:59:40;11.90;99.90
1015;DHT22;8170;48.118;11.628;2022-10-16T04:00:44;11.90;99.90
1015;DHT22;8170;48.118;11.628;2022-10-16T04:01:46;11.90;99.90
1015;DHT22;8170;48.118;11.628;2022-10-16T04:02:51;12.00;99.90
1015;DHT22;8170;48.118;11.628;2022-10-16T04:03:53;12.00;99.90
1015;DHT22;8170;48.118;11.628;2022-10-16T04:04:56;12.00;99.90
1015;DHT22;8170;48.118;11.628;2022-10-16T04:05:58;12.00;99.90
1015;DHT22;8170;48.118;11.628;2022-10-16T04:07:01;12.00;99.90
1015;DHT22;8170;48.118;11.628;2022-10-16T04:08:03;12.00;99.90
1015;DHT22;8170;48.118;11.628;2022-10-16T04:09:06;12.00;99.90
1015;DHT22;8170;48.118;11.628;2022-10-16T04:10:09;12.00;99.90
1015;DHT22;8170;48.118;11.628;2022-10-16T04:11:12;12.00;99.90
1015;DHT22;8170;48.118;11.628;2022-10-16T04:12:14;12.00;99.90
1015;DHT22;8170;48.118;11.628;2022-10-16T04:13:17;12.10;99.90
1015;DHT22;8170;48.118;11.628;2022-10-16T04:14:20;12.10;99.90
1015;DHT22;8170;48.118;11.628;2022-10-16T04:15:24;12.10;99.90
1015;DHT22;8170;48.118;11.628;2022-10-16T04:16:26;12.10;99.90
1015;DHT22;8170;48.118;11.628;2022-10-16T04:17:29;12.10;99.90
1015;DHT22;8170;48.118;11.628;2022-10-16T04:18:33;12.10;99.90
1015;DHT22;8170;48.118;11.628;2022-10-16T04:19:36;12.10;99.90
1015;DHT22;8170;48.118;11.628;2022-10-16T04:20:39;12.10;99.90
1015;DHT22;8170;48.118;11.628;2022-10-16T04:21:42;12.10;99.90
1015;DHT22;8170;48.118;11.628;2022-10-16T04:22:44;12.10;99.90
1015;DHT22;8170;48.118;11.628;2022-10-16T04:23:48;12.20;99.90
1015;DHT22;8170;48.118;11.628;2022-10-16T04:24:51;12.20;99.90
1015;DHT22;8170;48.118;11.628;2022-10-16T04:25:54;12.10;99.90
1015;DHT22;8170;48.118;11.628;2022-10-16T04:26:57;12.20;99.90
1015;DHT22;8170;48.118;11.628;2022-10-16T04:28:00;12.20;99.90
1015;DHT22;8170;48.118;11.628;2022-10-16T04:29:02;12.20;99.90
1015;DHT22;8170;48.118;11.628;2022-10-16T04:30:07;12.20;99.90
1015;DHT22;8170;48.118;11.628;2022-10-16T04:31:09;12.20;99.90
1015;DHT22;8170;48.118;11.628;2022-10-16T04:32:12;12.20;99.90
1015;DHT22;8170;48.118;11.628;2022-10-16T04:33:14;12.20;99.90
1015;DHT22;8170;48.118;11.628;2022-10-16T04:34:19;12.20;99.90
1015;DHT22;8170;48.118;11.628;2022-10-16T04:35:21;12.30;99.90
1015;DHT22;8170;48.118;11.628;2022-10-16T04:36:25;12.30;99.90
1015;DHT22;8170;48.118;11.628;2022-10-16T04:37:30;12.30;99.90
1015;DHT22;8170;48.118;11.628;2022-10-16T04:38:33;12.30;99.90
1015;DHT22;8170;48.118;11.628;2022-10-16T04:39:35;12.30;99.90
1015;DHT22;8170;48.118;11.628;2022-10-16T04:40:38;12.30;99.90
1015;DHT22;8170;48.118;11.628;2022-10-16T04:41:41;12.30;99.90
1015;DHT22;8170;48.118;11.628;2022-10-16T04:42:45;12.30;99.90
1015;DHT22;8170;48.118;11.628;2022-10-16T04:43:47;12.30;99.90
1015;DHT22;8170;48.118;11.628;2022-10-16T04:44:50;12.30;99.90
1015;DHT22;8170;48.118;11.628;2022-10-16T04:45:52;12.30;99.90
1015;DHT22;8170;48.118;11.628;2022-10-16T04:46:56;12.30;99.90
1015;DHT22;8170;48.118;11.628;2022-10-16T04:47:58;12.40;99.90
1015;DHT22;8170;48.118;11.628;2022-10-16T04:49:02;12.40;99.90
1015;DHT22;8170;48.118;11.628;2022-10-16T04:50:06;12.40;99.90
1015;DHT22;8170;48.118;11.628;2022-10-16T04:51:09;12.30;99.90
1015;DHT22;8170;48.118;11.628;2022-10-16T04:52:12;12.40;99.90
1015;DHT22;8170;48.118;11.628;2022-10-16T04:53:15;12.30;99.90
1015;DHT22;8170;48.118;11.628;2022-10-16T04:54:17;12.40;99.90
1015;DHT22;8170;48.118;11.628;2022-10-16T04:55:20;12.30;99.90
1015;DHT22;8170;48.118;11.628;2022-10-16T04:56:22;12.40;99.90
1015;DHT22;8170;48.118;11.628;2022-10-16T04:57:26;12.40;99.90
1015;DHT22;8170;48.118;11.628;2022-10-16T04:58:29;12.40;99.90
1015;DHT22;8170;48.118;11.628;2022-10-16T04:59:32;12.40;99.90
1015;DHT22;8170;48.118;11.628;2022-10-16T05:00:34;12.40;99.90
1015;DHT22;8170;48.118;11.628;2022-10-16T05:01:37;12.40;99.90
1015;DHT22;8170;48.118;11.628;2022-10-16T05:02:40;12.40;99.90
1015;DHT22;8170;48.118;11.628;2022-10-16T05:03:43;12.40;99.90
1015;DHT22;8170;48.118;11.628;2022-10-16T05:04:45;12.40;99.90
1015;DHT22;8170;48.118;11.628;2022-10-16T05:05:50;12.40;99.90
1015;DHT22;8170;48.118;11.628;2022-10-16T05:06:52;12.40;99.90
1015;DHT22;8170;48.118;11.628;2022-10-16T05:07:55;12.40;99.90
1015;DHT22;8170;48.118;11.628;2022-10-16T05:08:57;12.50;99.90
1015;DHT22;8170;48.118;11.628;2022-10-16T05:10:00;12.50;99.90
1015;DHT22;8170;48.118;11.628;2022-10-16T05:11:03;12.50;99.90
1015;DHT22;8170;48.118;11.628;2022-10-16T05:12:06;12.50;99.90
1015;DHT22;8170;48.118;11.628;2022-10-16T05:13:08;12.50;99.90
1015;DHT22;8170;48.118;11.628;2022-10-16T05:14:11;12.50;99.90
1015;DHT22;8170;48.118;11.628;2022-10-16T05:15:14;12.50;99.90
1015;DHT22;8170;48.118;11.628;2022-10-16T05:16:17;12.50;99.90
1015;DHT22;8170;48.118;11.628;2022-10-16T05:17:19;12.50;99.90
1015;DHT22;8170;48.118;11.628;2022-10-16T05:18:22;12.50;99.90
1015;DHT22;8170;48.118;11.628;2022-10-16T05:19:24;12.50;99.90
1015;DHT22;8170;48.118;11.628;2022-10-16T05:20:29;12.50;99.90
1015;DHT22;8170;48.118;11.628;2022-10-16T05:21:32;12.50;99.90
1015;DHT22;8170;48.118;11.628;2022-10-16T05:22:35;12.50;99.90
1015;DHT22;8170;48.118;11.628;2022-10-16T05:23:38;12.50;99.90
1015;DHT22;8170;48.118;11.628;2022-10-16T05:24:41;12.60;99.90
1015;DHT22;8170;48.118;11.628;2022-10-16T05:25:43;12.50;99.90
1015;DHT22;8170;48.118;11.628;2022-10-16T05:26:46;12.60;99.90
1015;DHT22;8170;48.118;11.628;2022-10-16T05:27:49;12.60;99.90
1015;DHT22;8170;48.118;11.628;2022-10-16T05:28:52;12.50;99.90
1015;DHT22;8170;48.118;11.628;2022-10-16T05:29:54;12.60;99.90
1015;DHT22;8170;48.118;11.628;2022-10-16T05:30:57;12.60;99.90
1015;DHT22;8170;48.118;11.628;2022-10-16T05:31:59;12.60;99.90
1015;DHT22;8170;48.118;11.628;2022-10-16T05:33:02;12.60;99.90
1015;DHT22;8170;48.118;11.628;2022-10-16T05:34:05;12.60;99.90
1015;DHT22;8170;48.118;11.628;2022-10-16T05:35:08;12.60;99.90
1015;DHT22;8170;48.118;11.628;2022-10-16T05:36:13;12.70;99.90
1015;DHT22;8170;48.118;11.628;2022-10-16T05:37:18;12.70;99.90
1015;DHT22;8170;48.118;11.628;2022-10-16T05:38:20;12.70;99.90
1015;DHT22;8170;48.118;11.628;2022-10-16T05:39:23;12.70;99.90
1015;DHT22;8170;48.118;11.628;2022-10-16T05:40:25;12.70;99.90
1015;DHT22;8170;48.118;11.628;2022-10-16T05:41:28;12.70;99.90
1015;DHT22;8170;48.118;11.628;2022-10-16T05:42:31;12.80;99.90
1015;DHT22;8170;48.118;11.628;2022-10-16T05:43:34;12.80;99.90
1015;DHT22;8170;48.118;11.628;2022-10-16T05:44:36;12.80;99.90
1015;DHT22;8170;48.118;11.628;2022-10-16T05:45:39;12.80;99.90
1015;DHT22;8170;48.118;11.628;2022-10-16T05:46:42;12.80;99.90
1015;DHT22;8170;48.118;11.628;2022-10-16T05:47:44;12.80;99.90
1015;DHT22;8170;48.118;11.628;2022-10-16T05:48:51;12.90;99.90
1015;DHT22;8170;48.118;11.628;2022-10-16T05:49:53;12.90;99.90
1015;DHT22;8170;48.118;11.628;2022-10-16T05:50:58;12.90;99.90
1015;DHT22;8170;48.118;11.628;2022-10-16T05:52:01;12.90;99.90
1015;DHT22;8170;48.118;11.628;2022-10-16T05:53:05;12.90;99.90
1015;DHT22;8170;48.118;11.628;2022-10-16T05:54:07;12.90;99.90
1015;DHT22;8170;48.118;11.628;2022-10-16T05:55:11;12.90;99.90
1015;DHT22;8170;48.118;11.628;2022-10-16T05:56:13;12.90;99.90
1015;DHT22;8170;48.118;11.628;2022-10-16T05:57:16;12.90;99.90
1015;DHT22;8170;48.118;11.628;2022-10-16T05:58:18;12.90;99.90
1015;DHT22;8170;48.118;11.628;2022-10-16T05:59:21;12.90;99.90
1015;DHT22;8170;48.118;11.628;2022-10-16T06:00:23;12.90;99.90
1015;DHT22;8170;48.118;11.628;2022-10-16T06:01:26;12.90;99.90
1015;DHT22;8170;48.118;11.628;2022-10-16T06:02:28;13.00;99.90
1015;DHT22;8170;48.118;11.628;2022-10-16T06:03:32;13.00;99.90
1015;DHT22;8170;48.118;11.628;2022-10-16T06:04:34;13.00;99.90
1015;DHT22;8170;48.118;11.628;2022-10-16T06:05:37;13.00;99.90
1015;DHT22;8170;48.118;11.628;2022-10-16T06:06:40;13.00;99.90
1015;DHT22;8170;48.118;11.628;2022-10-16T06:07:43;13.00;99.90
1015;DHT22;8170;48.118;11.628;2022-10-16T06:08:47;13.00;99.90
1015;DHT22;8170;48.118;11.628;2022-10-16T06:09:52;13.00;99.90
1015;DHT22;8170;48.118;11.628;2022-10-16T06:11:01;13.00;99.90
1015;DHT22;8170;48.118;11.628;2022-10-16T06:12:04;13.00;99.90
1015;DHT22;8170;48.118;11.628;2022-10-16T06:13:07;13.00;99.90
1015;DHT22;8170;48.118;11.628;2022-10-16T06:14:09;13.00;99.90
1015;DHT22;8170;48.118;11.628;2022-10-16T06:15:13;12.90;99.90
1015;DHT22;8170;48.118;11.628;2022-10-16T06:16:15;12.90;99.90
1015;DHT22;8170;48.118;11.628;2022-10-16T06:17:18;13.00;99.90
1015;DHT22;8170;48.118;11.628;2022-10-16T06:18:20;13.00;99.90
1015;DHT22;8170;48.118;11.628;2022-10-16T06:19:24;13.00;99.90
1015;DHT22;8170;48.118;11.628;2022-10-16T06:20:27;13.10;99.90
1015;DHT22;8170;48.118;11.628;2022-10-16T06:21:29;13.10;99.90
1015;DHT22;8170;48.118;11.628;2022-10-16T06:22:32;13.10;99.90
1015;DHT22;8170;48.118;11.628;2022-10-16T06:23:34;13.10;99.90
1015;DHT22;8170;48.118;11.628;2022-10-16T06:24:39;13.20;99.90
1015;DHT22;8170;48.118;11.628;2022-10-16T06:25:42;13.20;99.90
1015;DHT22;8170;48.118;11.628;2022-10-16T06:26:45;13.20;99.90
1015;DHT22;8170;48.118;11.628;2022-10-16T06:27:47;13.30;99.90
1015;DHT22;8170;48.118;11.628;2022-10-16T06:28:50;13.30;99.90
1015;DHT22;8170;48.118;11.628;2022-10-16T06:29:53;13.30;99.90
1015;DHT22;8170;48.118;11.628;2022-10-16T06:30:59;13.40;99.90
1015;DHT22;8170;48.118;11.628;2022-10-16T06:32:08;13.50;99.90
1015;DHT22;8170;48.118;11.628;2022-10-16T06:33:11;13.50;99.90
1015;DHT22;8170;48.118;11.628;2022-10-16T06:34:13;13.60;99.90
1015;DHT22;8170;48.118;11.628;2022-10-16T06:35:17;13.70;99.90
1015;DHT22;8170;48.118;11.628;2022-10-16T06:36:20;13.70;99.90
1015;DHT22;8170;48.118;11.628;2022-10-16T06:37:23;13.80;99.90
1015;DHT22;8170;48.118;11.628;2022-10-16T06:38:27;13.80;99.90
1015;DHT22;8170;48.118;11.628;2022-10-16T06:39:30;13.90;99.90
1015;DHT22;8170;48.118;11.628;2022-10-16T06:40:34;13.90;99.90
1015;DHT22;8170;48.118;11.628;2022-10-16T06:41:37;14.00;99.90
1015;DHT22;8170;48.118;11.628;2022-10-16T06:42:49;14.00;99.90
1015;DHT22;8170;48.118;11.628;2022-10-16T06:43:53;14.00;99.90
1015;DHT22;8170;48.118;11.628;2022-10-16T06:44:56;14.10;99.90
1015;DHT22;8170;48.118;11.628;2022-10-16T06:45:59;14.10;99.90
1015;DHT22;8170;48.118;11.628;2022-10-16T06:47:03;14.10;99.90
1015;DHT22;8170;48.118;11.628;2022-10-16T06:48:06;14.20;99.90
1015;DHT22;8170;48.118;11.628;2022-10-16T06:49:08;14.10;99.90
1015;DHT22;8170;48.118;11.628;2022-10-16T06:50:11;14.20;99.90
1015;DHT22;8170;48.118;11.628;2022-10-16T06:51:15;14.10;99.90
1015;DHT22;8170;48.118;11.628;2022-10-16T06:52:18;14.20;99.90
1015;DHT22;8170;48.118;11.628;2022-10-16T06:53:20;14.20;99.90